sensor_id;sensor_type;location;lat;lon;timestamp;pressure;altitude;pressure_sealevel;temperature;humidity
49102;BME280;34913;47.520;19.186;2022-07-10T00:01:01;99920.28;;;20.07;49.95
49102;BME280;34913;47.520;19.186;2022-07-10T00:03:26;99927.06;;;20.03;50.73
49102;BME280;34913;47.520;19.186;2022-07-10T00:05:52;99924.47;;;19.95;51.22
49102;BME280;34913;47.520;19.186;2022-07-10T00:08:17;99917.16;;;19.89;51.91
49102;BME280;34913;47.520;19.186;2022-07-10T00:10:42;99924.31;;;19.82;51.83
49102;BME280;34913;47.520;19.186;2022-07-10T00:13:08;99918.66;;;19.77;52.29
49102;BME280;34913;47.520;19.186;2022-07-10T00:15:33;99923.88;;;19.78;52.75
49102;BME280;34913;47.520;19.186;2022-07-10T00:17:58;99915.88;;;19.70;52.88
49102;BME280;34913;47.520;19.186;2022-07-10T00:20:24;99912.00;;;19.58;53.81
49102;BME280;34913;47.520;19.186;2022-07-10T00:22:50;99914.94;;;19.48;54.51
49102;BME280;34913;47.520;19.186;2022-07-10T00:25:15;99909.66;;;19.40;55.00
49102;BME280;34913;47.520;19.186;2022-07-10T00:27:41;99906.59;;;19.43;54.97
49102;BME280;34913;47.520;19.186;2022-07-10T00:30:07;99908.44;;;19.43;55.09
49102;BME280;34913;47.520;19.186;2022-07-10T00:32:32;99907.25;;;19.45;55.32
49102;BME280;34913;47.520;19.186;2022-07-10T00:34:58;99906.97;;;19.40;55.55
49102;BME280;34913;47.520;19.186;2022-07-10T00:37:23;99910.03;;;19.37;56.21
49102;BME280;34913;47.520;19.186;2022-07-10T00:39:48;99912.06;;;19.35;55.86
49102;BME280;34913;47.520;19.186;2022-07-10T00:42:14;99909.38;;;19.35;55.61
49102;BME280;34913;47.520;19.186;2022-07-10T00:44:40;99908.63;;;19.41;55.70
49102;BME280;34913;47.520;19.186;2022-07-10T00:47:06;99922.19;;;19.33;56.44
49102;BME280;34913;47.520;19.186;2022-07-10T00:49:35;99912.25;;;19.34;56.31
49102;BME280;34913;47.520;19.186;2022-07-10T00:52:01;99904.47;;;19.24;57.03
49102;BME280;34913;47.520;19.186;2022-07-10T00:54:28;99901.31;;;19.20;57.04
49102;BME280;34913;47.520;19.186;2022-07-10T00:56:54;99895.56;;;19.23;56.76
49102;BME280;34913;47.520;19.186;2022-07-10T00:59:19;99898.63;;;19.20;57.03
49102;BME280;34913;47.520;19.186;2022-07-10T01:01:46;99893.41;;;19.19;56.91
49102;BME280;34913;47.520;19.186;2022-07-10T01:04:12;99900.56;;;19.12;56.99
49102;BME280;34913;47.520;19.186;2022-07-10T01:06:37;99891.47;;;19.13;57.63
49102;BME280;34913;47.520;19.186;2022-07-10T01:09:02;99889.63;;;19.13;57.61
49102;BME280;34913;47.520;19.186;2022-07-10T01:11:28;99890.72;;;19.19;57.29
49102;BME280;34913;47.520;19.186;2022-07-10T01:13:53;99892.75;;;19.17;58.08
49102;BME280;34913;47.520;19.186;2022-07-10T01:16:18;99901.84;;;19.16;57.63
49102;BME280;34913;47.520;19.186;2022-07-10T01:18:44;99893.06;;;19.22;57.17
49102;BME280;34913;47.520;19.186;2022-07-10T01:21:29;99896.09;;;19.19;57.30
49102;BME280;34913;47.520;19.186;2022-07-10T01:23:54;99899.63;;;19.05;59.07
49102;BME280;34913;47.520;19.186;2022-07-10T01:26:20;99897.84;;;18.97;58.81
49102;BME280;34913;47.520;19.186;2022-07-10T01:28:50;99882.03;;;18.79;58.79
49102;BME280;34913;47.520;19.186;2022-07-10T01:31:16;99888.16;;;18.88;58.71
49102;BME280;34913;47.520;19.186;2022-07-10T01:33:42;99890.69;;;18.89;58.83
49102;BME280;34913;47.520;19.186;2022-07-10T01:36:07;99882.63;;;18.89;58.88
49102;BME280;34913;47.520;19.186;2022-07-10T01:38:33;99880.78;;;18.90;58.91
49102;BME280;34913;47.520;19.186;2022-07-10T01:40:58;99880.78;;;18.90;59.40
49102;BME280;34913;47.520;19.186;2022-07-10T01:43:24;99880.66;;;18.83;59.33
49102;BME280;34913;47.520;19.186;2022-07-10T01:45:49;99878.63;;;18.85;59.95
49102;BME280;34913;47.520;19.186;2022-07-10T01:48:16;99879.19;;;18.81;59.85
49102;BME280;34913;47.520;19.186;2022-07-10T01:50:41;99874.88;;;18.72;60.18
49102;BME280;34913;47.520;19.186;2022-07-10T01:53:06;99866.94;;;18.55;61.34
49102;BME280;34913;47.520;19.186;2022-07-10T01:55:32;99861.16;;;18.44;61.31
49102;BME280;34913;47.520;19.186;2022-07-10T01:57:57;99864.16;;;18.49;60.68
49102;BME280;34913;47.520;19.186;2022-07-10T02:00:23;99858.03;;;18.55;60.87
49102;BME280;34913;47.520;19.186;2022-07-10T02:02:49;99854.47;;;18.39;62.09
49102;BME280;34913;47.520;19.186;2022-07-10T02:05:34;99860.22;;;18.36;61.74
49102;BME280;34913;47.520;19.186;2022-07-10T02:08:00;99855.38;;;18.32;61.88
49102;BME280;34913;47.520;19.186;2022-07-10T02:10:25;99856.75;;;18.28;62.19
49102;BME280;34913;47.520;19.186;2022-07-10T02:12:51;99865.66;;;18.28;62.59
49102;BME280;34913;47.520;19.186;2022-07-10T02:15:16;99854.78;;;18.22;63.03
49102;BME280;34913;47.520;19.186;2022-07-10T02:17:41;99853.56;;;18.24;63.37
49102;BME280;34913;47.520;19.186;2022-07-10T02:20:06;99861.06;;;18.14;64.53
49102;BME280;34913;47.520;19.186;2022-07-10T02:22:33;99859.31;;;17.98;64.74
49102;BME280;34913;47.520;19.186;2022-07-10T02:24:59;99858.84;;;17.95;64.99
49102;BME280;34913;47.520;19.186;2022-07-10T02:27:24;99843.75;;;17.94;65.10
49102;BME280;34913;47.520;19.186;2022-07-10T02:29:49;99841.53;;;17.97;65.33
49102;BME280;34913;47.520;19.186;2022-07-10T02:32:15;99852.56;;;17.79;65.69
49102;BME280;34913;47.520;19.186;2022-07-10T02:34:40;99850.06;;;17.78;66.09
49102;BME280;34913;47.520;19.186;2022-07-10T02:37:05;99856.59;;;17.75;66.17
49102;BME280;34913;47.520;19.186;2022-07-10T02:39:30;99849.91;;;17.71;66.89
49102;BME280;34913;47.520;19.186;2022-07-10T02:41:56;99852.50;;;17.48;67.51
49102;BME280;34913;47.520;19.186;2022-07-10T02:44:21;99847.28;;;17.55;67.09
49102;BME280;34913;47.520;19.186;2022-07-10T02:46:46;99850.31;;;17.52;67.62
49102;BME280;34913;47.520;19.186;2022-07-10T02:49:11;99849.66;;;17.50;67.27
49102;BME280;34913;47.520;19.186;2022-07-10T02:51:37;99850.34;;;17.44;67.75
49102;BME280;34913;47.520;19.186;2022-07-10T02:54:02;99849.41;;;17.28;68.71
49102;BME280;34913;47.520;19.186;2022-07-10T02:56:27;99840.47;;;17.36;68.46
49102;BME280;34913;47.520;19.186;2022-07-10T02:58:53;99851.94;;;17.30;68.97
49102;BME280;34913;47.520;19.186;2022-07-10T03:01:18;99838.16;;;17.33;68.72
49102;BME280;34913;47.520;19.186;2022-07-10T03:03:43;99846.09;;;17.18;69.44
49102;BME280;34913;47.520;19.186;2022-07-10T03:06:09;99845.44;;;17.16;69.66
49102;BME280;34913;47.520;19.186;2022-07-10T03:08:34;99842.63;;;17.01;70.30
49102;BME280;34913;47.520;19.186;2022-07-10T03:10:59;99843.47;;;16.94;70.72
49102;BME280;34913;47.520;19.186;2022-07-10T03:13:24;99846.66;;;16.97;70.80
49102;BME280;34913;47.520;19.186;2022-07-10T03:15:50;99839.31;;;16.91;71.33
49102;BME280;34913;47.520;19.186;2022-07-10T03:18:18;99847.00;;;16.94;71.15
49102;BME280;34913;47.520;19.186;2022-07-10T03:20:43;99851.38;;;16.87;71.79
49102;BME280;34913;47.520;19.186;2022-07-10T03:23:09;99854.22;;;16.94;71.04
49102;BME280;34913;47.520;19.186;2022-07-10T03:25:34;99851.03;;;16.98;71.25
49102;BME280;34913;47.520;19.186;2022-07-10T03:27:59;99855.03;;;17.02;70.82
49102;BME280;34913;47.520;19.186;2022-07-10T03:30:24;99849.00;;;17.00;71.09
49102;BME280;34913;47.520;19.186;2022-07-10T03:32:50;99855.38;;;16.99;71.09
49102;BME280;34913;47.520;19.186;2022-07-10T03:35:15;99856.72;;;16.87;71.97
49102;BME280;34913;47.520;19.186;2022-07-10T03:37:40;99846.34;;;16.92;71.59
49102;BME280;34913;47.520;19.186;2022-07-10T03:40:06;99845.53;;;16.84;71.82
49102;BME280;34913;47.520;19.186;2022-07-10T03:42:31;99842.31;;;16.88;71.90
49102;BME280;34913;47.520;19.186;2022-07-10T03:44:56;99840.66;;;16.79;72.19
49102;BME280;34913;47.520;19.186;2022-07-10T03:47:22;99849.19;;;16.66;72.84
49102;BME280;34913;47.520;19.186;2022-07-10T03:49:47;99837.63;;;16.66;73.15
49102;BME280;34913;47.520;19.186;2022-07-10T03:52:12;99834.94;;;16.66;73.54
49102;BME280;34913;47.520;19.186;2022-07-10T03:54:38;99834.97;;;16.74;73.00
49102;BME280;34913;47.520;19.186;2022-07-10T03:57:03;99829.09;;;16.79;72.84
49102;BME280;34913;47.520;19.186;2022-07-10T03:59:47;99827.91;;;16.81;73.17
49102;BME280;34913;47.520;19.186;2022-07-10T04:02:12;99827.94;;;16.73;73.20
49102;BME280;34913;47.520;19.186;2022-07-10T04:04:38;99822.50;;;16.97;72.50
49102;BME280;34913;47.520;19.186;2022-07-10T04:07:03;99826.44;;;17.26;71.38
49102;BME280;34913;47.520;19.186;2022-07-10T04:09:29;99828.66;;;17.53;70.08
49102;BME280;34913;47.520;19.186;2022-07-10T04:11:55;99831.28;;;17.70;69.35
49102;BME280;34913;47.520;19.186;2022-07-10T04:14:20;99826.06;;;17.99;68.29
49102;BME280;34913;47.520;19.186;2022-07-10T04:16:45;99825.88;;;18.24;66.86
49102;BME280;34913;47.520;19.186;2022-07-10T04:19:11;99824.16;;;18.31;66.51
49102;BME280;34913;47.520;19.186;2022-07-10T04:21:36;99821.16;;;18.49;65.61
49102;BME280;34913;47.520;19.186;2022-07-10T04:24:02;99812.50;;;18.76;64.56
49102;BME280;34913;47.520;19.186;2022-07-10T04:26:27;99818.81;;;18.98;63.52
49102;BME280;34913;47.520;19.186;2022-07-10T04:28:52;99816.13;;;18.98;63.12
49102;BME280;34913;47.520;19.186;2022-07-10T04:31:18;99816.13;;;19.13;62.92
49102;BME280;34913;47.520;19.186;2022-07-10T04:33:43;99811.75;;;19.27;62.56
49102;BME280;34913;47.520;19.186;2022-07-10T04:36:08;99812.88;;;19.32;62.16
49102;BME280;34913;47.520;19.186;2022-07-10T04:38:34;99817.41;;;19.46;61.93
49102;BME280;34913;47.520;19.186;2022-07-10T04:40:59;99818.13;;;19.70;60.77
49102;BME280;34913;47.520;19.186;2022-07-10T04:43:24;99816.25;;;19.70;60.62
49102;BME280;34913;47.520;19.186;2022-07-10T04:45:49;99812.09;;;19.68;61.00
49102;BME280;34913;47.520;19.186;2022-07-10T04:48:15;99813.06;;;19.82;60.31
49102;BME280;34913;47.520;19.186;2022-07-10T04:50:40;99808.72;;;20.02;59.71
49102;BME280;34913;47.520;19.186;2022-07-10T04:53:05;99813.31;;;20.29;58.89
49102;BME280;34913;47.520;19.186;2022-07-10T04:55:30;99813.50;;;20.28;59.21
49102;BME280;34913;47.520;19.186;2022-07-10T04:57:56;99811.22;;;20.46;58.74
49102;BME280;34913;47.520;19.186;2022-07-10T05:00:21;99813.78;;;20.54;58.19
49102;BME280;34913;47.520;19.186;2022-07-10T05:02:47;99811.03;;;20.48;58.45
49102;BME280;34913;47.520;19.186;2022-07-10T05:05:12;99815.19;;;20.50;58.51
49102;BME280;34913;47.520;19.186;2022-07-10T05:07:37;99798.66;;;20.60;57.99
49102;BME280;34913;47.520;19.186;2022-07-10T05:10:03;99803.75;;;20.76;57.66
49102;BME280;34913;47.520;19.186;2022-07-10T05:12:28;99800.25;;;20.82;57.27
49102;BME280;34913;47.520;19.186;2022-07-10T05:14:53;99790.75;;;20.86;57.86
49102;BME280;34913;47.520;19.186;2022-07-10T05:17:19;99789.81;;;21.07;56.58
49102;BME280;34913;47.520;19.186;2022-07-10T05:19:44;99800.16;;;20.97;57.81
49102;BME280;34913;47.520;19.186;2022-07-10T05:22:09;99796.53;;;21.18;56.32
49102;BME280;34913;47.520;19.186;2022-07-10T05:24:35;99793.53;;;21.34;55.49
49102;BME280;34913;47.520;19.186;2022-07-10T05:27:00;99795.25;;;21.55;54.49
49102;BME280;34913;47.520;19.186;2022-07-10T05:29:26;99794.03;;;21.71;55.58
49102;BME280;34913;47.520;19.186;2022-07-10T05:31:51;99793.44;;;21.69;54.80
49102;BME280;34913;47.520;19.186;2022-07-10T05:34:16;99785.56;;;21.87;53.98
49102;BME280;34913;47.520;19.186;2022-07-10T05:36:41;99781.06;;;22.08;53.37
49102;BME280;34913;47.520;19.186;2022-07-10T05:39:07;99785.44;;;22.22;52.24
49102;BME280;34913;47.520;19.186;2022-07-10T05:41:32;99792.50;;;22.56;53.35
49102;BME280;34913;47.520;19.186;2022-07-10T05:43:58;99792.69;;;22.88;51.27
49102;BME280;34913;47.520;19.186;2022-07-10T05:46:23;99790.78;;;23.08;50.76
49102;BME280;34913;47.520;19.186;2022-07-10T05:48:49;99790.97;;;23.06;50.06
49102;BME280;34913;47.520;19.186;2022-07-10T05:51:14;99789.75;;;22.96;51.09
49102;BME280;34913;47.520;19.186;2022-07-10T05:53:39;99789.13;;;23.07;50.80
49102;BME280;34913;47.520;19.186;2022-07-10T05:56:05;99793.94;;;22.72;53.16
49102;BME280;34913;47.520;19.186;2022-07-10T05:58:30;99794.34;;;22.89;51.14
49102;BME280;34913;47.520;19.186;2022-07-10T06:00:55;99796.38;;;23.06;51.10
49102;BME280;34913;47.520;19.186;2022-07-10T06:03:21;99795.38;;;23.07;51.33
49102;BME280;34913;47.520;19.186;2022-07-10T06:05:46;99790.94;;;23.20;50.31
49102;BME280;34913;47.520;19.186;2022-07-10T06:08:12;99796.31;;;23.33;50.23
49102;BME280;34913;47.520;19.186;2022-07-10T06:10:37;99783.53;;;23.47;49.50
49102;BME280;34913;47.520;19.186;2022-07-10T06:13:05;99786.00;;;23.55;49.68
49102;BME280;34913;47.520;19.186;2022-07-10T06:15:30;99785.16;;;23.61;49.21
49102;BME280;34913;47.520;19.186;2022-07-10T06:17:56;99776.56;;;23.71;49.41
49102;BME280;34913;47.520;19.186;2022-07-10T06:20:21;99783.97;;;23.88;49.00
49102;BME280;34913;47.520;19.186;2022-07-10T06:22:47;99774.16;;;23.87;47.61
49102;BME280;34913;47.520;19.186;2022-07-10T06:25:12;99785.81;;;23.94;47.37
49102;BME280;34913;47.520;19.186;2022-07-10T06:27:37;99793.03;;;24.01;47.95
49102;BME280;34913;47.520;19.186;2022-07-10T06:30:03;99793.09;;;23.94;47.63
49102;BME280;34913;47.520;19.186;2022-07-10T06:32:28;99796.94;;;24.11;46.76
49102;BME280;34913;47.520;19.186;2022-07-10T06:34:54;99792.63;;;24.29;46.31
49102;BME280;34913;47.520;19.186;2022-07-10T06:37:19;99794.00;;;24.44;46.59
49102;BME280;34913;47.520;19.186;2022-07-10T06:39:46;99783.91;;;24.52;45.52
49102;BME280;34913;47.520;19.186;2022-07-10T06:42:14;99784.97;;;24.50;45.02
49102;BME280;34913;47.520;19.186;2022-07-10T06:44:41;99783.31;;;24.49;46.10
49102;BME280;34913;47.520;19.186;2022-07-10T06:47:06;99788.00;;;24.61;45.18
49102;BME280;34913;47.520;19.186;2022-07-10T06:49:50;99786.34;;;24.60;45.50
49102;BME280;34913;47.520;19.186;2022-07-10T06:52:16;99787.47;;;24.70;45.32
49102;BME280;34913;47.520;19.186;2022-07-10T06:54:41;99782.50;;;24.49;44.67
49102;BME280;34913;47.520;19.186;2022-07-10T06:57:07;99789.88;;;24.60;44.15
49102;BME280;34913;47.520;19.186;2022-07-10T06:59:33;99784.34;;;24.92;44.45
49102;BME280;34913;47.520;19.186;2022-07-10T07:01:58;99782.94;;;24.89;42.51
49102;BME280;34913;47.520;19.186;2022-07-10T07:04:23;99783.41;;;25.04;42.28
49102;BME280;34913;47.520;19.186;2022-07-10T07:06:49;99783.81;;;25.01;41.94
49102;BME280;34913;47.520;19.186;2022-07-10T07:09:14;99783.63;;;25.03;41.31
49102;BME280;34913;47.520;19.186;2022-07-10T07:11:39;99786.16;;;25.34;41.69
49102;BME280;34913;47.520;19.186;2022-07-10T07:14:04;99779.22;;;25.02;39.93
49102;BME280;34913;47.520;19.186;2022-07-10T07:16:30;99782.47;;;24.92;40.61
49102;BME280;34913;47.520;19.186;2022-07-10T07:19:07;99778.69;;;24.93;40.61
49102;BME280;34913;47.520;19.186;2022-07-10T07:21:33;99782.53;;;24.86;40.43
49102;BME280;34913;47.520;19.186;2022-07-10T07:24:17;99773.19;;;24.82;40.04
49102;BME280;34913;47.520;19.186;2022-07-10T07:26:45;99772.84;;;24.53;40.62
49102;BME280;34913;47.520;19.186;2022-07-10T07:29:16;99776.72;;;24.82;41.95
49102;BME280;34913;47.520;19.186;2022-07-10T07:31:42;99775.84;;;25.25;38.57
49102;BME280;34913;47.520;19.186;2022-07-10T07:34:07;99768.59;;;25.37;38.83
49102;BME280;34913;47.520;19.186;2022-07-10T07:36:33;99766.72;;;25.68;35.74
49102;BME280;34913;47.520;19.186;2022-07-10T07:38:58;99768.28;;;25.45;36.90
49102;BME280;34913;47.520;19.186;2022-07-10T07:41:23;99768.81;;;25.66;36.84
49102;BME280;34913;47.520;19.186;2022-07-10T07:43:49;99771.06;;;25.87;37.58
49102;BME280;34913;47.520;19.186;2022-07-10T07:46:14;99763.47;;;26.19;36.42
49102;BME280;34913;47.520;19.186;2022-07-10T07:48:40;99768.22;;;26.35;37.65
49102;BME280;34913;47.520;19.186;2022-07-10T07:51:06;99768.72;;;26.44;37.95
49102;BME280;34913;47.520;19.186;2022-07-10T07:53:31;99763.09;;;26.27;37.64
49102;BME280;34913;47.520;19.186;2022-07-10T07:55:57;99758.56;;;25.68;37.62
49102;BME280;34913;47.520;19.186;2022-07-10T07:58:22;99754.66;;;26.05;37.32
49102;BME280;34913;47.520;19.186;2022-07-10T08:00:47;99763.69;;;26.29;36.70
49102;BME280;34913;47.520;19.186;2022-07-10T08:03:13;99762.91;;;26.52;36.41
49102;BME280;34913;47.520;19.186;2022-07-10T08:05:38;99763.97;;;26.51;36.15
49102;BME280;34913;47.520;19.186;2022-07-10T08:08:03;99759.38;;;26.52;36.24
49102;BME280;34913;47.520;19.186;2022-07-10T08:10:34;99762.56;;;26.72;35.24
49102;BME280;34913;47.520;19.186;2022-07-10T08:12:59;99760.72;;;27.01;35.97
49102;BME280;34913;47.520;19.186;2022-07-10T08:15:24;99770.72;;;27.07;34.13
49102;BME280;34913;47.520;19.186;2022-07-10T08:17:50;99768.69;;;27.14;34.33
49102;BME280;34913;47.520;19.186;2022-07-10T08:20:16;99767.41;;;26.82;33.84
49102;BME280;34913;47.520;19.186;2022-07-10T08:22:42;99761.25;;;27.10;33.90
49102;BME280;34913;47.520;19.186;2022-07-10T08:25:08;99763.03;;;27.44;32.54
49102;BME280;34913;47.520;19.186;2022-07-10T08:27:33;99764.94;;;27.72;31.76
49102;BME280;34913;47.520;19.186;2022-07-10T08:29:59;99765.91;;;27.38;32.89
49102;BME280;34913;47.520;19.186;2022-07-10T08:32:25;99758.22;;;27.23;32.54
49102;BME280;34913;47.520;19.186;2022-07-10T08:34:51;99761.97;;;27.45;33.29
49102;BME280;34913;47.520;19.186;2022-07-10T08:37:16;99769.00;;;27.70;32.04
49102;BME280;34913;47.520;19.186;2022-07-10T08:39:42;99749.03;;;27.81;31.18
49102;BME280;34913;47.520;19.186;2022-07-10T08:42:08;99761.69;;;27.59;31.73
49102;BME280;34913;47.520;19.186;2022-07-10T08:44:35;99754.38;;;27.07;32.28
49102;BME280;34913;47.520;19.186;2022-07-10T08:47:01;99753.81;;;26.47;32.84
49102;BME280;34913;47.520;19.186;2022-07-10T08:49:27;99752.47;;;26.26;33.61
49102;BME280;34913;47.520;19.186;2022-07-10T08:51:56;99748.75;;;25.67;35.57
49102;BME280;34913;47.520;19.186;2022-07-10T08:54:22;99757.66;;;25.25;36.43
49102;BME280;34913;47.520;19.186;2022-07-10T08:56:48;99742.56;;;24.74;35.57
49102;BME280;34913;47.520;19.186;2022-07-10T08:59:15;99748.47;;;25.08;35.49
49102;BME280;34913;47.520;19.186;2022-07-10T09:01:40;99748.44;;;24.71;38.03
49102;BME280;34913;47.520;19.186;2022-07-10T09:04:06;99749.00;;;24.55;38.16
49102;BME280;34913;47.520;19.186;2022-07-10T09:06:31;99757.34;;;24.35;38.59
49102;BME280;34913;47.520;19.186;2022-07-10T09:09:01;99749.47;;;24.52;39.64
49102;BME280;34913;47.520;19.186;2022-07-10T09:11:26;99743.31;;;25.37;38.08
49102;BME280;34913;47.520;19.186;2022-07-10T09:14:04;99740.81;;;25.95;38.97
49102;BME280;34913;47.520;19.186;2022-07-10T09:16:34;99742.09;;;26.46;34.63
49102;BME280;34913;47.520;19.186;2022-07-10T09:21:45;99740.47;;;25.61;34.16
49102;BME280;34913;47.520;19.186;2022-07-10T09:24:11;99744.19;;;26.32;32.26
49102;BME280;34913;47.520;19.186;2022-07-10T09:26:36;99740.53;;;26.62;33.11
49102;BME280;34913;47.520;19.186;2022-07-10T09:29:05;99733.75;;;26.99;33.08
49102;BME280;34913;47.520;19.186;2022-07-10T09:31:47;99735.75;;;26.22;36.63
49102;BME280;34913;47.520;19.186;2022-07-10T09:34:12;99737.44;;;25.51;36.90
49102;BME280;34913;47.520;19.186;2022-07-10T09:36:38;99733.16;;;25.92;34.94
49102;BME280;34913;47.520;19.186;2022-07-10T09:39:03;99742.31;;;26.33;34.74
49102;BME280;34913;47.520;19.186;2022-07-10T09:41:29;99734.16;;;26.68;33.30
49102;BME280;34913;47.520;19.186;2022-07-10T09:43:59;99743.00;;;26.28;34.21
49102;BME280;34913;47.520;19.186;2022-07-10T09:46:32;99732.69;;;26.30;35.11
49102;BME280;34913;47.520;19.186;2022-07-10T09:49:01;99733.56;;;25.47;36.99
49102;BME280;34913;47.520;19.186;2022-07-10T09:51:29;99729.63;;;25.13;35.83
49102;BME280;34913;47.520;19.186;2022-07-10T09:53:55;99732.13;;;25.45;36.35
49102;BME280;34913;47.520;19.186;2022-07-10T09:56:20;99733.41;;;26.02;34.61
49102;BME280;34913;47.520;19.186;2022-07-10T09:58:46;99729.41;;;26.28;34.10
49102;BME280;34913;47.520;19.186;2022-07-10T10:01:17;99729.56;;;26.57;34.72
49102;BME280;34913;47.520;19.186;2022-07-10T10:03:43;99727.25;;;26.89;31.05
49102;BME280;34913;47.520;19.186;2022-07-10T10:06:10;99717.88;;;27.08;32.26
49102;BME280;34913;47.520;19.186;2022-07-10T10:11:08;99726.59;;;27.34;33.48
49102;BME280;34913;47.520;19.186;2022-07-10T10:13:34;99717.53;;;27.45;32.97
49102;BME280;34913;47.520;19.186;2022-07-10T10:15:59;99721.75;;;27.52;33.85
49102;BME280;34913;47.520;19.186;2022-07-10T10:18:26;99711.38;;;26.97;33.61
49102;BME280;34913;47.520;19.186;2022-07-10T10:20:55;99710.66;;;27.14;31.51
49102;BME280;34913;47.520;19.186;2022-07-10T10:23:22;99700.13;;;27.06;32.63
49102;BME280;34913;47.520;19.186;2022-07-10T10:25:48;99694.50;;;26.60;32.84
49102;BME280;34913;47.520;19.186;2022-07-10T10:28:13;99701.44;;;25.98;34.15
49102;BME280;34913;47.520;19.186;2022-07-10T10:30:41;99697.25;;;26.49;33.60
49102;BME280;34913;47.520;19.186;2022-07-10T10:35:51;99697.00;;;26.15;32.79
49102;BME280;34913;47.520;19.186;2022-07-10T10:38:17;99687.16;;;26.02;32.90
49102;BME280;34913;47.520;19.186;2022-07-10T10:40:42;99681.97;;;26.01;34.12
49102;BME280;34913;47.520;19.186;2022-07-10T10:45:43;99677.13;;;26.26;33.06
49102;BME280;34913;47.520;19.186;2022-07-10T10:48:09;99683.38;;;26.27;33.32
49102;BME280;34913;47.520;19.186;2022-07-10T10:50:38;99674.50;;;25.84;34.41
49102;BME280;34913;47.520;19.186;2022-07-10T10:53:04;99681.09;;;25.47;35.76
49102;BME280;34913;47.520;19.186;2022-07-10T10:55:30;99681.41;;;25.69;34.13
49102;BME280;34913;47.520;19.186;2022-07-10T10:58:11;99673.53;;;26.37;33.26
49102;BME280;34913;47.520;19.186;2022-07-10T11:00:36;99679.31;;;26.88;31.64
49102;BME280;34913;47.520;19.186;2022-07-10T11:03:21;99664.63;;;26.89;32.29
49102;BME280;34913;47.520;19.186;2022-07-10T11:05:47;99677.78;;;25.98;32.77
49102;BME280;34913;47.520;19.186;2022-07-10T11:08:13;99678.41;;;26.12;32.61
49102;BME280;34913;47.520;19.186;2022-07-10T11:10:45;99666.94;;;26.45;32.31
49102;BME280;34913;47.520;19.186;2022-07-10T11:13:11;99664.00;;;26.47;31.01
49102;BME280;34913;47.520;19.186;2022-07-10T11:15:40;99671.44;;;26.51;32.71
49102;BME280;34913;47.520;19.186;2022-07-10T11:18:11;99671.22;;;26.93;32.61
49102;BME280;34913;47.520;19.186;2022-07-10T11:25:45;99660.28;;;27.62;30.89
49102;BME280;34913;47.520;19.186;2022-07-10T11:28:25;99652.75;;;27.35;30.23
49102;BME280;34913;47.520;19.186;2022-07-10T11:30:53;99664.88;;;26.76;30.45
49102;BME280;34913;47.520;19.186;2022-07-10T11:33:19;99661.84;;;26.25;30.22
49102;BME280;34913;47.520;19.186;2022-07-10T11:35:51;99662.66;;;26.37;31.18
49102;BME280;34913;47.520;19.186;2022-07-10T11:38:23;99664.31;;;26.62;30.22
49102;BME280;34913;47.520;19.186;2022-07-10T11:40:49;99660.31;;;26.64;30.27
49102;BME280;34913;47.520;19.186;2022-07-10T11:43:14;99678.53;;;26.17;30.99
49102;BME280;34913;47.520;19.186;2022-07-10T11:45:42;99684.88;;;25.76;30.72
49102;BME280;34913;47.520;19.186;2022-07-10T11:48:07;99675.44;;;26.02;31.65
49102;BME280;34913;47.520;19.186;2022-07-10T11:50:41;99679.50;;;26.46;31.11
49102;BME280;34913;47.520;19.186;2022-07-10T11:53:06;99681.25;;;26.52;30.98
49102;BME280;34913;47.520;19.186;2022-07-10T11:55:31;99683.25;;;26.68;30.25
49102;BME280;34913;47.520;19.186;2022-07-10T11:58:11;99667.84;;;26.74;30.56
49102;BME280;34913;47.520;19.186;2022-07-10T12:00:37;99688.34;;;26.30;32.66
49102;BME280;34913;47.520;19.186;2022-07-10T12:03:15;99692.13;;;25.64;33.11
49102;BME280;34913;47.520;19.186;2022-07-10T12:05:41;99703.84;;;25.64;33.11
49102;BME280;34913;47.520;19.186;2022-07-10T12:08:06;99703.34;;;25.97;32.47
49102;BME280;34913;47.520;19.186;2022-07-10T12:10:32;99715.31;;;26.20;32.33
49102;BME280;34913;47.520;19.186;2022-07-10T12:13:14;99709.75;;;26.26;31.40
49102;BME280;34913;47.520;19.186;2022-07-10T12:15:41;99714.59;;;26.01;31.59
49102;BME280;34913;47.520;19.186;2022-07-10T12:18:07;99701.94;;;25.95;31.70
49102;BME280;34913;47.520;19.186;2022-07-10T12:20:33;99709.06;;;26.07;32.73
49102;BME280;34913;47.520;19.186;2022-07-10T12:22:59;99694.50;;;26.02;31.79
49102;BME280;34913;47.520;19.186;2022-07-10T12:25:25;99696.09;;;25.79;32.17
49102;BME280;34913;47.520;19.186;2022-07-10T12:27:57;99700.28;;;25.64;33.34
49102;BME280;34913;47.520;19.186;2022-07-10T12:30:23;99705.31;;;25.78;32.50
49102;BME280;34913;47.520;19.186;2022-07-10T12:32:49;99702.28;;;25.86;32.76
49102;BME280;34913;47.520;19.186;2022-07-10T12:35:14;99717.03;;;25.79;32.38
49102;BME280;34913;47.520;19.186;2022-07-10T12:37:47;99702.38;;;25.50;33.39
49102;BME280;34913;47.520;19.186;2022-07-10T12:40:13;99714.22;;;25.55;32.51
49102;BME280;34913;47.520;19.186;2022-07-10T12:43:00;99705.72;;;25.64;32.63
49102;BME280;34913;47.520;19.186;2022-07-10T12:45:25;99692.31;;;25.80;32.71
49102;BME280;34913;47.520;19.186;2022-07-10T12:47:51;99698.53;;;25.69;34.40
49102;BME280;34913;47.520;19.186;2022-07-10T12:50:17;99696.59;;;25.88;32.44
49102;BME280;34913;47.520;19.186;2022-07-10T12:52:43;99693.22;;;26.16;31.66
49102;BME280;34913;47.520;19.186;2022-07-10T13:00:13;99705.13;;;25.92;32.36
49102;BME280;34913;47.520;19.186;2022-07-10T13:02:38;99706.91;;;26.09;33.18
49102;BME280;34913;47.520;19.186;2022-07-10T13:05:04;99709.09;;;25.77;31.13
49102;BME280;34913;47.520;19.186;2022-07-10T13:07:33;99708.13;;;25.42;33.40